createdAt,value
2022-11-04T00:00:51.674Z,11.09
2022-11-04T00:01:51.701Z,11.06
2022-11-04T00:02:51.644Z,11.05
2022-11-04T00:03:51.546Z,11.03
2022-11-04T00:04:51.547Z,11.02
2022-11-04T00:05:51.540Z,11.03
2022-11-04T00:06:51.714Z,11.03
2022-11-04T00:07:51.505Z,11.01
2022-11-04T00:08:51.483Z,10.99
2022-11-04T00:09:51.477Z,11.01
2022-11-04T00:10:51.500Z,10.98
2022-11-04T00:11:51.457Z,10.98
2022-11-04T00:12:51.431Z,10.95
2022-11-04T00:13:51.477Z,10.94
2022-11-04T00:14:51.403Z,10.98
2022-11-04T00:15:51.665Z,10.98
2022-11-04T00:16:51.377Z,10.98
2022-11-04T00:17:51.413Z,10.94
2022-11-04T00:18:51.401Z,10.94
2022-11-04T00:19:51.343Z,10.94
2022-11-04T00:20:51.354Z,10.93
2022-11-04T00:21:51.315Z,10.90
2022-11-04T00:22:59.353Z,10.86
2022-11-04T00:23:51.304Z,10.86
2022-11-04T00:24:51.267Z,10.86
2022-11-04T00:25:51.292Z,10.88
2022-11-04T00:26:51.411Z,10.88
2022-11-04T00:27:51.240Z,10.88
2022-11-04T00:28:51.235Z,10.88
2022-11-04T00:29:51.224Z,10.87
2022-11-04T00:30:51.222Z,10.86
2022-11-04T00:31:51.181Z,10.84
2022-11-04T00:32:51.191Z,10.84
2022-11-04T00:33:51.164Z,10.83
2022-11-04T00:34:51.174Z,10.84
2022-11-04T00:35:51.159Z,10.86
2022-11-04T00:36:51.240Z,10.84
2022-11-04T00:37:51.109Z,10.84
2022-11-04T00:38:51.111Z,10.86
2022-11-04T00:39:51.092Z,10.84
2022-11-04T00:40:51.111Z,10.83
2022-11-04T00:41:51.048Z,10.84
2022-11-04T00:42:51.799Z,10.83
2022-11-04T00:43:51.037Z,10.84
2022-11-04T00:44:51.031Z,10.86
2022-11-04T00:45:51.061Z,10.87
2022-11-04T00:46:51.169Z,10.87
2022-11-04T00:47:50.988Z,10.88
2022-11-04T00:48:50.999Z,10.90
2022-11-04T00:49:51.799Z,10.90
2022-11-04T00:50:51.146Z,10.88
2022-11-04T00:51:51.056Z,10.90
2022-11-04T00:52:50.925Z,10.91
2022-11-04T00:53:50.925Z,10.91
2022-11-04T00:54:50.911Z,10.91
2022-11-04T00:55:50.899Z,10.91
2022-11-04T00:56:50.866Z,10.93
2022-11-04T00:57:50.860Z,10.94
2022-11-04T00:58:50.837Z,10.93
2022-11-04T00:59:50.825Z,10.95
2022-11-04T01:00:50.910Z,10.95
2022-11-04T01:01:51.122Z,10.95
2022-11-04T01:02:50.807Z,10.98
2022-11-04T01:03:50.789Z,10.98
2022-11-04T01:04:50.778Z,10.98
2022-11-04T01:05:50.776Z,10.99
2022-11-04T01:06:50.758Z,11.01
2022-11-04T01:07:50.721Z,11.05
2022-11-04T01:08:50.717Z,11.03
2022-11-04T01:09:50.707Z,11.05
2022-11-04T01:10:50.698Z,11.06
2022-11-04T01:11:50.768Z,11.06
2022-11-04T01:12:50.664Z,11.08
2022-11-04T01:13:50.664Z,11.09
2022-11-04T01:14:50.656Z,11.11
2022-11-04T01:15:50.664Z,11.09
2022-11-04T01:16:50.613Z,11.12
2022-11-04T01:17:50.604Z,11.12
2022-11-04T01:18:50.597Z,11.11
2022-11-04T01:19:50.592Z,11.12
2022-11-04T01:20:50.566Z,11.11
2022-11-04T01:21:50.624Z,11.12
2022-11-04T01:22:50.555Z,11.13
2022-11-04T01:23:50.512Z,11.16
2022-11-04T01:24:50.511Z,11.17
2022-11-04T01:25:50.506Z,11.17
2022-11-04T01:26:50.514Z,11.19
2022-11-04T01:27:50.484Z,11.17
2022-11-04T01:28:50.475Z,11.20
2022-11-04T01:29:50.451Z,11.19
2022-11-04T01:30:50.430Z,11.19
2022-11-04T01:31:50.509Z,11.19
2022-11-04T01:32:50.424Z,11.19
2022-11-04T01:33:50.390Z,11.20
2022-11-04T01:34:50.377Z,11.20
2022-11-04T01:35:50.360Z,11.19
2022-11-04T01:36:50.379Z,11.19
2022-11-04T01:37:50.336Z,11.19
2022-11-04T01:38:50.346Z,11.16
2022-11-04T01:39:50.322Z,11.17
2022-11-04T01:40:50.312Z,11.16
2022-11-04T01:41:50.345Z,11.12
2022-11-04T01:42:50.293Z,11.12
2022-11-04T01:43:50.263Z,11.09
2022-11-04T01:44:50.261Z,11.08
2022-11-04T01:45:50.239Z,11.05
2022-11-04T01:46:50.229Z,11.03
2022-11-04T01:47:50.208Z,11.01
2022-11-04T01:48:50.197Z,11.01
2022-11-04T01:49:50.180Z,10.99
2022-11-04T01:50:50.178Z,10.98
2022-11-04T01:51:50.286Z,10.94
2022-11-04T01:52:50.145Z,10.91
2022-11-04T01:53:50.151Z,10.88
2022-11-04T01:54:50.125Z,10.87
2022-11-04T01:55:50.120Z,10.86
2022-11-04T01:56:50.132Z,10.86
2022-11-04T01:57:50.080Z,10.84
2022-11-04T01:58:50.068Z,10.83
2022-11-04T01:59:50.061Z,10.84
2022-11-04T02:00:50.055Z,10.83
2022-11-04T02:01:50.265Z,10.80
2022-11-04T02:02:50.049Z,10.76
2022-11-04T02:03:50.019Z,10.76
2022-11-04T02:04:49.996Z,10.75
2022-11-04T02:05:49.999Z,10.76
2022-11-04T02:06:50.120Z,10.73
2022-11-04T02:07:49.967Z,10.69
2022-11-04T02:08:49.955Z,10.69
2022-11-04T02:09:49.923Z,10.66
2022-11-04T02:10:49.928Z,10.62
2022-11-04T02:11:49.976Z,10.63
2022-11-04T02:12:49.890Z,10.60
2022-11-04T02:13:49.889Z,10.60
2022-11-04T02:14:49.878Z,10.60
2022-11-04T02:15:49.858Z,10.58
2022-11-04T02:16:49.879Z,10.55
2022-11-04T02:17:49.843Z,10.57
2022-11-04T02:18:49.847Z,10.58
2022-11-04T02:19:49.818Z,10.57
2022-11-04T02:20:49.796Z,10.54
2022-11-04T02:21:49.829Z,10.51
2022-11-04T02:22:49.787Z,10.47
2022-11-04T02:23:49.744Z,10.49
2022-11-04T02:24:49.747Z,10.49
2022-11-04T02:25:49.714Z,10.49
2022-11-04T02:26:49.824Z,10.47
2022-11-04T02:27:49.704Z,10.46
2022-11-04T02:28:49.688Z,10.44
2022-11-04T02:29:49.662Z,10.43
2022-11-04T02:30:49.695Z,10.42
2022-11-04T02:31:49.703Z,10.42
2022-11-04T02:32:49.633Z,10.42
2022-11-04T02:33:49.611Z,10.38
2022-11-04T02:34:49.617Z,10.38
2022-11-04T02:35:49.604Z,10.35
2022-11-04T02:36:49.606Z,10.32
2022-11-04T02:37:49.632Z,10.31
2022-11-04T02:38:49.565Z,10.29
2022-11-04T02:39:49.554Z,10.29
2022-11-04T02:40:49.533Z,10.26
2022-11-04T02:41:49.558Z,10.25
2022-11-04T02:42:49.491Z,10.25
2022-11-04T02:43:49.502Z,10.24
2022-11-04T02:44:49.481Z,10.24
2022-11-04T02:45:49.473Z,10.20
2022-11-04T02:46:49.646Z,10.20
2022-11-04T02:47:49.452Z,10.18
2022-11-04T02:48:49.441Z,10.16
2022-11-04T02:49:49.451Z,10.13
2022-11-04T02:50:49.389Z,10.11
2022-11-04T02:51:49.410Z,10.10
2022-11-04T02:52:51.310Z,10.10
2022-11-04T02:53:49.372Z,10.09
2022-11-04T02:54:49.363Z,10.07
2022-11-04T02:55:49.352Z,10.06
2022-11-04T02:56:49.386Z,10.04
2022-11-04T02:57:49.321Z,10.02
2022-11-04T02:58:49.312Z,9.99
2022-11-04T02:59:49.301Z,9.98
2022-11-04T03:00:49.306Z,9.96
2022-11-04T03:01:49.527Z,9.96
2022-11-04T03:02:49.268Z,9.93
2022-11-04T03:03:49.241Z,9.92
2022-11-04T03:04:49.223Z,9.91
2022-11-04T03:05:49.207Z,9.91
2022-11-04T03:06:49.326Z,9.86
2022-11-04T03:07:49.208Z,9.86
2022-11-04T03:08:49.159Z,9.81
2022-11-04T03:09:49.158Z,9.81
2022-11-04T03:10:49.151Z,9.80
2022-11-04T03:11:49.159Z,9.80
2022-11-04T03:12:49.140Z,9.78
2022-11-04T03:13:49.117Z,9.75
2022-11-04T03:14:49.086Z,9.75
2022-11-04T03:15:49.109Z,9.75
2022-11-04T03:16:49.179Z,9.75
2022-11-04T03:17:49.108Z,9.73
2022-11-04T03:18:49.052Z,9.73
2022-11-04T03:19:49.058Z,9.71
2022-11-04T03:20:49.033Z,9.70
2022-11-04T03:21:49.106Z,9.68
2022-11-04T03:22:48.996Z,9.67
2022-11-04T03:23:49.007Z,9.67
2022-11-04T03:24:48.967Z,9.65
2022-11-04T03:25:48.974Z,9.63
2022-11-04T03:26:49.029Z,9.63
2022-11-04T03:27:48.925Z,9.60
2022-11-04T03:28:48.946Z,9.62
2022-11-04T03:29:48.905Z,9.63
2022-11-04T03:30:48.894Z,9.63
2022-11-04T03:31:48.905Z,9.62
2022-11-04T03:32:48.866Z,9.63
2022-11-04T03:33:48.870Z,9.63
2022-11-04T03:34:48.855Z,9.63
2022-11-04T03:35:48.822Z,9.63
2022-11-04T03:36:48.921Z,9.59
2022-11-04T03:37:48.813Z,9.58
2022-11-04T03:38:48.815Z,9.59
2022-11-04T03:39:48.793Z,9.58
2022-11-04T03:40:48.752Z,9.56
2022-11-04T03:41:48.804Z,9.55
2022-11-04T03:42:49.793Z,9.56
2022-11-04T03:43:48.750Z,9.55
2022-11-04T03:44:48.703Z,9.56
2022-11-04T03:45:48.705Z,9.53
2022-11-04T03:46:48.792Z,9.53
2022-11-04T03:47:48.673Z,9.53
2022-11-04T03:48:48.664Z,9.53
2022-11-04T03:49:48.642Z,9.53
2022-11-04T03:50:48.621Z,9.55
2022-11-04T03:51:49.571Z,9.56
2022-11-04T03:52:48.629Z,9.56
2022-11-04T03:53:48.606Z,9.56
2022-11-04T03:54:48.583Z,9.56
2022-11-04T03:55:48.574Z,9.55
2022-11-04T03:56:48.639Z,9.56
2022-11-04T03:57:48.539Z,9.55
2022-11-04T03:58:48.548Z,9.58
2022-11-04T03:59:48.523Z,9.56
2022-11-04T04:00:48.591Z,9.56
2022-11-04T04:01:48.652Z,9.56
2022-11-04T04:02:48.478Z,9.55
2022-11-04T04:03:48.469Z,9.55
2022-11-04T04:04:48.446Z,9.56
2022-11-04T04:05:48.534Z,9.55
2022-11-04T04:06:48.493Z,9.55
2022-11-04T04:07:48.412Z,9.56
2022-11-04T04:08:48.404Z,9.55
2022-11-04T04:09:48.385Z,9.53
2022-11-04T04:10:48.368Z,9.50
2022-11-04T04:11:48.384Z,9.52
2022-11-04T04:12:48.338Z,9.49
2022-11-04T04:13:48.357Z,9.49
2022-11-04T04:14:48.475Z,9.49
2022-11-04T04:15:48.303Z,9.48
2022-11-04T04:16:48.322Z,9.45
2022-11-04T04:17:48.302Z,9.45
2022-11-04T04:18:49.743Z,9.48
2022-11-04T04:19:48.247Z,9.48
2022-11-04T04:20:48.249Z,9.44
2022-11-04T04:21:48.261Z,9.48
2022-11-04T04:22:48.227Z,9.49
2022-11-04T04:23:48.206Z,9.45
2022-11-04T04:24:48.182Z,9.44
2022-11-04T04:25:48.189Z,9.41
2022-11-04T04:26:48.226Z,9.41
2022-11-04T04:27:48.146Z,9.40
2022-11-04T04:28:48.159Z,9.40
2022-11-04T04:29:48.146Z,9.38
2022-11-04T04:30:48.117Z,9.38
2022-11-04T04:31:48.145Z,9.38
2022-11-04T04:32:48.086Z,9.40
2022-11-04T04:33:48.084Z,9.40
2022-11-04T04:34:48.068Z,9.40
2022-11-04T04:35:48.065Z,9.37
2022-11-04T04:36:48.097Z,9.35
2022-11-04T04:37:48.035Z,9.34
2022-11-04T04:38:48.048Z,9.32
2022-11-04T04:39:48.006Z,9.32
2022-11-04T04:40:48.016Z,9.34
2022-11-04T04:41:47.994Z,9.32
2022-11-04T04:42:47.966Z,9.32
2022-11-04T04:43:47.952Z,9.31
2022-11-04T04:44:47.923Z,9.32
2022-11-04T04:45:47.967Z,9.31
2022-11-04T04:46:47.918Z,9.30
2022-11-04T04:47:47.892Z,9.30
2022-11-04T04:48:47.895Z,9.30
2022-11-04T04:49:47.871Z,9.30
2022-11-04T04:50:47.855Z,9.30
2022-11-04T04:51:47.854Z,9.26
2022-11-04T04:52:47.822Z,9.31
2022-11-04T04:53:47.820Z,9.30
2022-11-04T04:54:47.834Z,9.30
2022-11-04T04:55:47.805Z,9.27
2022-11-04T04:56:47.818Z,9.26
2022-11-04T04:57:47.766Z,9.23
2022-11-04T04:58:47.764Z,9.23
2022-11-04T04:59:47.773Z,9.22
2022-11-04T05:00:47.867Z,9.19
2022-11-04T05:01:47.940Z,9.17
2022-11-04T05:02:47.711Z,9.19
2022-11-04T05:03:47.689Z,9.17
2022-11-04T05:04:47.705Z,9.16
2022-11-04T05:05:47.659Z,9.17
2022-11-04T05:06:47.742Z,9.19
2022-11-04T05:07:47.633Z,9.19
2022-11-04T05:08:47.644Z,9.19
2022-11-04T05:09:47.621Z,9.17
2022-11-04T05:10:47.609Z,9.19
2022-11-04T05:11:47.623Z,9.20
2022-11-04T05:12:47.570Z,9.19
2022-11-04T05:13:47.548Z,9.16
2022-11-04T05:14:47.547Z,9.17
2022-11-04T05:15:47.541Z,9.16
2022-11-04T05:16:47.537Z,9.16
2022-11-04T05:17:47.504Z,9.15
2022-11-04T05:18:47.501Z,9.12
2022-11-04T05:19:47.510Z,9.13
2022-11-04T05:20:47.476Z,9.13
2022-11-04T05:21:47.448Z,9.10
2022-11-04T05:22:47.428Z,9.08
2022-11-04T05:23:47.496Z,9.06
2022-11-04T05:24:47.426Z,9.04
2022-11-04T05:25:47.407Z,9.03
2022-11-04T05:26:47.413Z,9.01
2022-11-04T05:27:47.377Z,8.98
2022-11-04T05:28:47.369Z,8.97
2022-11-04T05:29:47.364Z,8.97
2022-11-04T05:30:47.326Z,8.97
2022-11-04T05:31:47.330Z,8.98
2022-11-04T05:32:47.302Z,8.98
2022-11-04T05:33:47.308Z,8.97
2022-11-04T05:34:47.296Z,8.96
2022-11-04T05:35:47.278Z,8.94
2022-11-04T05:36:47.283Z,8.96
2022-11-04T05:37:47.235Z,8.94
2022-11-04T05:38:47.242Z,8.96
2022-11-04T05:39:47.225Z,8.94
2022-11-04T05:40:47.194Z,8.93
2022-11-04T05:41:47.183Z,8.94
2022-11-04T05:42:47.178Z,8.91
2022-11-04T05:43:47.164Z,8.89
2022-11-04T05:44:47.175Z,8.89
2022-11-04T05:45:47.133Z,8.91
2022-11-04T05:46:47.213Z,8.91
2022-11-04T05:47:47.115Z,8.93
2022-11-04T05:48:47.115Z,8.93
2022-11-04T05:49:47.116Z,8.91
2022-11-04T05:50:47.083Z,8.88
2022-11-04T05:51:47.124Z,8.89
2022-11-04T05:52:47.081Z,8.91
2022-11-04T05:53:47.053Z,8.89
2022-11-04T05:54:47.079Z,8.91
2022-11-04T05:55:47.029Z,8.91
2022-11-04T05:56:46.994Z,8.88
2022-11-04T05:57:47.001Z,8.89
2022-11-04T05:58:46.987Z,8.89
2022-11-04T05:59:46.973Z,8.91
2022-11-04T06:00:46.941Z,8.94
2022-11-04T06:01:47.173Z,8.93
2022-11-04T06:02:46.994Z,8.93
2022-11-04T06:03:46.908Z,8.91
2022-11-04T06:04:46.910Z,8.91
2022-11-04T06:05:46.903Z,8.88
2022-11-04T06:06:46.910Z,8.88
2022-11-04T06:07:46.852Z,8.88
2022-11-04T06:08:46.843Z,8.88
2022-11-04T06:09:46.856Z,8.86
2022-11-04T06:10:46.809Z,8.86
2022-11-04T06:11:46.835Z,8.85
2022-11-04T06:12:46.779Z,8.82
2022-11-04T06:13:46.776Z,8.80
2022-11-04T06:14:46.793Z,8.80
2022-11-04T06:15:46.763Z,8.82
2022-11-04T06:16:46.753Z,8.79
2022-11-04T06:17:46.723Z,8.80
2022-11-04T06:18:46.709Z,8.79
2022-11-04T06:19:46.733Z,8.79
2022-11-04T06:20:46.689Z,8.79
2022-11-04T06:21:46.689Z,8.79
2022-11-04T06:22:46.658Z,8.79
2022-11-04T06:23:46.660Z,8.78
2022-11-04T06:25:01.380Z,8.78
2022-11-04T06:25:46.638Z,8.76
2022-11-04T06:26:46.629Z,8.75
2022-11-04T06:27:46.593Z,8.75
2022-11-04T06:28:46.585Z,8.75
2022-11-04T06:29:46.577Z,8.73
2022-11-04T06:30:46.567Z,8.75
2022-11-04T06:31:46.545Z,8.76
2022-11-04T06:32:46.536Z,8.78
2022-11-04T06:33:46.543Z,8.78
2022-11-04T06:34:46.520Z,8.76
2022-11-04T06:35:46.508Z,8.75
2022-11-04T06:36:46.515Z,8.75
2022-11-04T06:37:46.478Z,8.76
2022-11-04T06:38:46.461Z,8.76
2022-11-04T06:39:46.443Z,8.75
2022-11-04T06:40:46.447Z,8.75
2022-11-04T06:41:50.454Z,8.78
2022-11-04T06:42:47.403Z,8.79
2022-11-04T06:43:46.418Z,8.78
2022-11-04T06:44:46.380Z,8.79
2022-11-04T06:45:46.398Z,8.80
2022-11-04T06:46:46.360Z,8.82
2022-11-04T06:47:46.341Z,8.83
2022-11-04T06:48:46.343Z,8.83
2022-11-04T06:49:46.457Z,8.83
2022-11-04T06:50:46.326Z,8.86
2022-11-04T06:51:46.350Z,8.86
2022-11-04T06:52:46.300Z,8.89
2022-11-04T06:53:46.285Z,8.93
2022-11-04T06:54:46.255Z,8.96
2022-11-04T06:55:46.255Z,8.98
2022-11-04T06:56:46.279Z,9.01
2022-11-04T06:57:46.210Z,9.04
2022-11-04T06:58:46.283Z,9.04
2022-11-04T06:59:46.207Z,9.08
2022-11-04T07:00:46.283Z,9.10
2022-11-04T07:01:46.421Z,9.10
2022-11-04T07:02:46.263Z,9.12
2022-11-04T07:03:46.161Z,9.12
2022-11-04T07:04:46.211Z,9.15
2022-11-04T07:05:46.118Z,9.15
2022-11-04T07:06:46.179Z,9.15
2022-11-04T07:07:46.103Z,9.16
2022-11-04T07:08:46.079Z,9.17
2022-11-04T07:09:46.049Z,9.19
2022-11-04T07:10:46.069Z,9.22
2022-11-04T07:11:46.029Z,9.24
2022-11-04T07:12:46.030Z,9.24
2022-11-04T07:13:46.017Z,9.27
2022-11-04T07:14:45.995Z,9.30
2022-11-04T07:15:46.004Z,9.32
2022-11-04T07:16:46.022Z,9.34
2022-11-04T07:17:46.005Z,9.37
2022-11-04T07:18:45.938Z,9.38
2022-11-04T07:19:45.932Z,9.38
2022-11-04T07:20:45.929Z,9.42
2022-11-04T07:21:45.926Z,9.42
2022-11-04T07:22:45.942Z,9.44
2022-11-04T07:23:45.881Z,9.45
2022-11-04T07:24:45.868Z,9.45
2022-11-04T07:25:45.869Z,9.45
2022-11-04T07:26:45.880Z,9.48
2022-11-04T07:27:45.845Z,9.49
2022-11-04T07:28:45.831Z,9.49
2022-11-04T07:29:45.794Z,9.49
2022-11-04T07:30:45.793Z,9.53
2022-11-04T07:31:45.843Z,9.53
2022-11-04T07:32:45.771Z,9.56
2022-11-04T07:33:45.745Z,9.58
2022-11-04T07:34:45.734Z,9.58
2022-11-04T07:35:45.729Z,9.59
2022-11-04T07:36:45.735Z,9.58
2022-11-04T07:37:45.707Z,9.59
2022-11-04T07:38:45.706Z,9.59
2022-11-04T07:39:45.685Z,9.58
2022-11-04T07:40:45.704Z,9.60
2022-11-04T07:41:45.678Z,9.62
2022-11-04T07:42:45.650Z,9.62
2022-11-04T07:43:45.658Z,9.63
2022-11-04T07:44:45.614Z,9.67
2022-11-04T07:45:45.606Z,9.68
2022-11-04T07:46:45.627Z,9.70
2022-11-04T07:47:45.610Z,9.70
2022-11-04T07:48:45.574Z,9.71
2022-11-04T07:49:45.652Z,9.68
2022-11-04T07:50:45.538Z,9.70
2022-11-04T07:51:45.541Z,9.68
2022-11-04T07:52:45.527Z,9.68
2022-11-04T07:53:45.538Z,9.70
2022-11-04T07:54:45.515Z,9.68
2022-11-04T07:55:45.466Z,9.68
2022-11-04T07:56:45.476Z,9.70
2022-11-04T07:57:45.482Z,9.70
2022-11-04T07:58:45.431Z,9.70
2022-11-04T07:59:45.401Z,9.68
2022-11-04T08:00:45.416Z,9.70
2022-11-04T08:01:45.558Z,9.70
2022-11-04T08:02:45.452Z,9.73
2022-11-04T08:03:45.419Z,9.74
2022-11-04T08:04:45.384Z,9.73
2022-11-04T08:05:45.375Z,9.75
2022-11-04T08:06:45.389Z,9.78
2022-11-04T08:07:45.334Z,9.80
2022-11-04T08:08:45.382Z,9.81
2022-11-04T08:09:45.335Z,9.83
2022-11-04T08:10:45.304Z,9.85
2022-11-04T08:11:45.272Z,9.83
2022-11-04T08:12:45.273Z,9.88
2022-11-04T08:13:52.818Z,9.88
2022-11-04T08:18:03.098Z,9.93
2022-11-04T08:19:02.991Z,9.93
2022-11-04T08:20:02.987Z,9.93
2022-11-04T08:21:02.912Z,9.92
2022-11-04T08:22:02.960Z,9.95
2022-11-04T08:23:02.895Z,9.98
2022-11-04T08:24:02.899Z,9.99
2022-11-04T08:25:02.906Z,9.96
2022-11-04T08:26:02.899Z,9.96
2022-11-04T08:27:02.907Z,9.96
2022-11-04T08:28:02.876Z,9.98
2022-11-04T08:29:03.334Z,9.98
2022-11-04T08:30:02.833Z,9.99
2022-11-04T08:31:02.945Z,10.01
2022-11-04T08:32:02.909Z,10.04
2022-11-04T08:33:02.906Z,10.07
2022-11-04T08:34:02.852Z,10.10
2022-11-04T08:35:02.794Z,10.14
2022-11-04T08:36:02.806Z,10.17
2022-11-04T08:37:02.755Z,10.20
2022-11-04T08:38:02.736Z,10.20
2022-11-04T08:39:08.937Z,10.22
2022-11-04T08:40:03.673Z,10.24
2022-11-04T08:41:02.717Z,10.25
2022-11-04T08:42:02.800Z,10.29
2022-11-04T08:43:02.673Z,10.32
2022-11-04T08:44:02.647Z,10.35
2022-11-04T08:45:02.632Z,10.38
2022-11-04T08:46:02.622Z,10.39
2022-11-04T08:47:02.651Z,10.42
2022-11-04T08:48:05.904Z,10.46
2022-11-04T08:49:07.008Z,10.49
2022-11-04T08:51:18.203Z,10.60
2022-11-04T08:52:18.216Z,10.65
2022-11-04T08:53:18.064Z,10.68
2022-11-04T08:54:29.741Z,10.70
2022-11-04T08:55:18.088Z,10.76
2022-11-04T08:56:18.047Z,10.81
2022-11-04T08:57:18.259Z,10.86
2022-11-04T08:58:18.068Z,10.87
2022-11-04T08:59:18.061Z,10.91
2022-11-04T09:00:18.022Z,10.95
2022-11-04T09:01:18.033Z,10.95
2022-11-04T09:02:17.999Z,10.95
2022-11-04T09:03:17.955Z,10.98
2022-11-04T09:04:18.067Z,10.94
2022-11-04T09:05:17.942Z,10.93
2022-11-04T09:06:17.930Z,10.95
2022-11-04T09:07:17.971Z,10.99
2022-11-04T09:08:17.886Z,10.99
2022-11-04T09:09:17.903Z,11.02
2022-11-04T09:10:17.851Z,11.03
2022-11-04T09:11:17.857Z,11.02
2022-11-04T09:12:17.869Z,11.05
2022-11-04T09:13:17.814Z,11.09
2022-11-04T09:14:17.853Z,11.12
2022-11-04T09:15:17.809Z,11.12
2022-11-04T09:16:17.789Z,11.16
2022-11-04T09:17:17.779Z,11.19
2022-11-04T09:18:17.763Z,11.20
2022-11-04T09:19:17.747Z,11.20
2022-11-04T09:20:17.754Z,11.20
2022-11-04T09:21:17.707Z,11.20
2022-11-04T09:22:17.732Z,11.16
2022-11-04T09:23:17.708Z,11.09
2022-11-04T09:24:17.673Z,11.08
2022-11-04T09:25:17.655Z,11.06
2022-11-04T09:26:17.675Z,11.08
2022-11-04T09:27:17.647Z,11.11
2022-11-04T09:28:17.645Z,11.12
2022-11-04T09:29:17.645Z,11.16
2022-11-04T09:30:17.631Z,11.17
2022-11-04T09:31:17.596Z,11.13
2022-11-04T09:32:18.633Z,11.13
2022-11-04T09:33:17.594Z,11.13
2022-11-04T09:34:17.905Z,11.13
2022-11-04T09:35:17.728Z,11.13
2022-11-04T09:36:17.674Z,11.11
2022-11-04T09:37:17.709Z,11.13
2022-11-04T09:38:18.319Z,11.16
2022-11-04T09:39:17.472Z,11.16
2022-11-04T09:40:17.475Z,11.20
2022-11-04T09:41:17.469Z,11.23
2022-11-04T09:42:17.471Z,11.23
2022-11-04T09:43:19.230Z,11.26
2022-11-04T09:44:17.434Z,11.27
2022-11-04T09:45:22.066Z,11.28
2022-11-04T09:46:18.392Z,11.31
2022-11-04T09:47:21.616Z,11.31
2022-11-04T09:48:17.371Z,11.31
2022-11-04T09:49:17.370Z,11.36
2022-11-04T09:50:17.369Z,11.38
2022-11-04T09:51:39.797Z,11.42
2022-11-04T09:52:18.321Z,11.45
2022-11-04T09:53:17.320Z,11.46
2022-11-04T09:54:17.334Z,11.48
2022-11-04T09:55:17.293Z,11.48
2022-11-04T09:56:17.308Z,11.51
2022-11-04T09:57:17.250Z,11.54
2022-11-04T09:58:17.375Z,11.56
2022-11-04T09:59:17.349Z,11.56
2022-11-04T10:00:17.231Z,11.57
2022-11-04T10:01:17.315Z,11.54
2022-11-04T10:02:21.914Z,11.54
2022-11-04T10:03:18.218Z,11.51
2022-11-04T10:04:25.069Z,11.49
2022-11-04T10:05:17.152Z,11.51
2022-11-04T10:06:17.149Z,11.57
2022-11-04T10:07:17.125Z,11.57
2022-11-04T10:08:17.135Z,11.64
2022-11-04T10:09:17.095Z,11.69
2022-11-04T10:10:17.093Z,11.74
2022-11-04T10:11:17.094Z,11.75
2022-11-04T10:12:17.070Z,11.81
2022-11-04T10:13:17.065Z,11.88
2022-11-04T10:14:17.019Z,11.93
2022-11-04T10:15:17.013Z,12.00
2022-11-04T10:16:17.010Z,12.04
2022-11-04T10:17:16.981Z,12.12
2022-11-04T10:18:16.994Z,12.15
2022-11-04T10:19:16.980Z,12.23
2022-11-04T10:20:16.970Z,12.30
2022-11-04T10:21:16.942Z,12.36
2022-11-04T10:22:16.944Z,12.40
2022-11-04T10:23:16.928Z,12.43
2022-11-04T10:24:16.889Z,12.41
2022-11-04T10:25:16.879Z,12.40
2022-11-04T10:26:16.886Z,12.38
2022-11-04T10:27:16.891Z,12.37
2022-11-04T10:28:16.851Z,12.40
2022-11-04T10:29:16.844Z,12.38
2022-11-04T10:30:16.825Z,12.33
2022-11-04T10:31:16.829Z,12.26
2022-11-04T10:32:21.888Z,12.23
2022-11-04T10:33:17.829Z,12.25
2022-11-04T10:34:16.785Z,12.23
2022-11-04T10:35:16.747Z,12.22
2022-11-04T10:36:16.750Z,12.23
2022-11-04T10:37:16.760Z,12.19
2022-11-04T10:38:19.760Z,12.16
2022-11-04T10:39:16.729Z,12.15
2022-11-04T10:40:16.687Z,12.15
2022-11-04T10:41:16.686Z,12.18
2022-11-04T10:42:16.718Z,12.23
2022-11-04T10:43:16.689Z,12.26
2022-11-04T10:44:16.631Z,12.33
2022-11-04T10:45:16.616Z,12.37
2022-11-04T10:46:16.624Z,12.38
2022-11-04T10:47:16.596Z,12.43
2022-11-04T10:48:16.585Z,12.43
2022-11-04T10:49:16.580Z,12.46
2022-11-04T10:50:32.046Z,12.48
2022-11-04T10:51:17.544Z,12.49
2022-11-04T10:52:20.656Z,12.54
2022-11-04T10:53:17.536Z,12.56
2022-11-04T10:54:16.521Z,12.58
2022-11-04T10:55:16.575Z,12.59
2022-11-04T10:56:16.564Z,12.61
2022-11-04T10:57:16.478Z,12.61
2022-11-04T10:58:16.478Z,12.67
2022-11-04T10:59:20.249Z,12.69
2022-11-04T11:00:16.432Z,12.73
2022-11-04T11:01:16.628Z,12.77
2022-11-04T11:02:16.446Z,12.84
2022-11-04T11:03:16.411Z,12.87
2022-11-04T11:04:16.356Z,12.92
2022-11-04T11:05:16.362Z,12.94
2022-11-04T11:06:16.346Z,12.96
2022-11-04T11:07:16.314Z,13.04
2022-11-04T11:08:16.324Z,13.07
2022-11-04T11:09:16.304Z,13.09
2022-11-04T11:10:16.282Z,13.09
2022-11-04T11:11:16.287Z,13.06
2022-11-04T11:12:48.988Z,13.03
2022-11-04T11:14:26.184Z,13.03
2022-11-04T11:15:26.176Z,13.03
2022-11-04T11:16:26.142Z,12.99
2022-11-04T11:17:26.167Z,13.03
2022-11-04T11:18:26.133Z,12.99
2022-11-04T11:19:26.122Z,12.96
2022-11-04T11:20:26.113Z,12.95
2022-11-04T11:21:26.120Z,12.91
2022-11-04T11:22:26.111Z,12.89
2022-11-04T11:23:26.070Z,12.87
2022-11-04T11:24:26.075Z,12.81
2022-11-04T11:25:26.054Z,12.73
2022-11-04T11:26:26.022Z,12.73
2022-11-04T11:27:26.035Z,12.69
2022-11-04T11:28:25.997Z,12.63
2022-11-04T11:29:26.026Z,12.66
2022-11-04T11:30:26.027Z,12.63
2022-11-04T11:31:25.961Z,12.66
2022-11-04T11:32:25.963Z,12.67
2022-11-04T11:33:25.949Z,12.67
2022-11-04T11:34:25.962Z,12.73
2022-11-04T11:35:25.983Z,12.76
2022-11-04T11:36:25.933Z,12.81
2022-11-04T11:37:25.890Z,12.81
2022-11-04T11:38:25.924Z,12.87
2022-11-04T11:39:25.870Z,12.89
2022-11-04T11:40:25.874Z,12.89
2022-11-04T11:41:26.248Z,12.88
2022-11-04T11:42:25.819Z,12.88
2022-11-04T11:43:25.831Z,12.88
2022-11-04T11:44:25.831Z,12.88
2022-11-04T11:45:25.800Z,12.88
2022-11-04T11:46:25.806Z,12.87
2022-11-04T11:47:25.761Z,12.87
2022-11-04T11:48:26.622Z,12.87
2022-11-04T11:49:26.806Z,12.85
2022-11-04T11:50:25.749Z,12.87
2022-11-04T11:51:30.727Z,12.85
2022-11-04T11:52:26.700Z,12.88
2022-11-04T11:53:26.487Z,12.89
2022-11-04T11:54:25.758Z,12.92
2022-11-04T11:55:25.748Z,12.94
2022-11-04T11:56:25.652Z,12.98
2022-11-04T11:57:25.805Z,13.01
2022-11-04T12:00:44.251Z,13.07
2022-11-04T12:01:26.756Z,13.10
2022-11-04T12:02:25.701Z,13.12
2022-11-04T12:03:26.478Z,13.07
2022-11-04T12:06:26.800Z,13.03
2022-11-04T12:09:30.032Z,12.96
2022-11-04T12:10:49.214Z,12.96
2022-11-04T12:11:26.452Z,12.95
2022-11-04T12:12:25.455Z,12.94
2022-11-04T12:13:28.403Z,12.92
2022-11-04T12:14:25.416Z,12.89
2022-11-04T12:15:25.407Z,12.89
2022-11-04T12:16:25.416Z,12.89
2022-11-04T12:17:26.385Z,12.92
2022-11-04T12:18:25.398Z,12.91
2022-11-04T12:19:25.401Z,12.91
2022-11-04T12:20:25.332Z,12.92
2022-11-04T12:21:25.346Z,12.95
2022-11-04T12:22:25.327Z,12.89
2022-11-04T12:23:25.333Z,12.88
2022-11-04T12:24:25.310Z,12.87
2022-11-04T12:25:25.296Z,12.84
2022-11-04T12:26:25.282Z,12.85
2022-11-04T12:27:25.252Z,12.85
2022-11-04T12:28:25.243Z,12.81
2022-11-04T12:29:25.298Z,12.80
2022-11-04T12:30:31.226Z,12.84
2022-11-04T12:31:26.246Z,12.88
2022-11-04T12:32:25.204Z,12.89
2022-11-04T12:33:25.200Z,12.94
2022-11-04T12:34:25.198Z,12.99
2022-11-04T12:35:25.147Z,13.04
2022-11-04T12:36:25.155Z,13.07
2022-11-04T12:37:25.169Z,13.09
2022-11-04T12:38:25.224Z,13.10
2022-11-04T12:39:25.161Z,13.10
2022-11-04T12:40:25.112Z,13.12
2022-11-04T12:41:47.177Z,13.14
2022-11-04T12:42:32.479Z,13.13
2022-11-04T12:43:26.045Z,13.14
2022-11-04T12:44:25.045Z,13.16
2022-11-04T12:45:25.051Z,13.17
2022-11-04T12:46:25.001Z,13.17
2022-11-04T12:47:25.021Z,13.16
2022-11-04T12:48:24.980Z,13.14
2022-11-04T12:49:24.976Z,13.12
2022-11-04T12:50:24.980Z,13.12
2022-11-04T12:51:24.962Z,13.10
2022-11-04T12:52:24.929Z,13.07
2022-11-04T12:53:24.945Z,13.06
2022-11-04T12:54:24.939Z,13.04
2022-11-04T12:55:24.926Z,13.03
2022-11-04T12:56:24.917Z,12.92
2022-11-04T12:57:24.867Z,12.88
2022-11-04T12:58:24.889Z,12.87
2022-11-04T12:59:24.845Z,12.81
2022-11-04T13:00:24.872Z,12.80
2022-11-04T13:01:25.005Z,12.79
2022-11-04T13:02:24.901Z,12.80
2022-11-04T13:03:24.793Z,12.77
2022-11-04T13:04:24.797Z,12.74
2022-11-04T13:05:24.801Z,12.71
2022-11-04T13:06:24.757Z,12.73
2022-11-04T13:07:24.767Z,12.71
2022-11-04T13:08:24.751Z,12.67
2022-11-04T13:09:24.763Z,12.61
2022-11-04T13:10:24.704Z,12.61
2022-11-04T13:11:24.714Z,12.62
2022-11-04T13:12:24.657Z,12.63
2022-11-04T13:13:24.666Z,12.69
2022-11-04T13:14:24.670Z,12.67
2022-11-04T13:15:24.616Z,12.71